Time;durP1;ratioP1;P1;durP2;ratioP2;P2;SDS_P1;SDS_P2;PMS_P1;PMS_P2;Temp;Humidity;BMP_temperature;BMP_pressure;BME280_temperature;BME280_humidity;BME280_pressure;Samples;Min_cycle;Max_cycle;Signal;HPM_P1;HPM_P2
2021/12/08 00:01:14;;;;;;;1.50;1.10;;;;;;;0.16;89.01;99072.41;1753541;80;21200;-54
2021/12/08 00:03:40;;;;;;;1.87;1.40;;;;;;;0.14;88.93;99070.68;1745220;80;21013;-54
2021/12/08 00:06:08;;;;;;;1.53;1.43;;;;;;;0.09;88.86;99070.73;1745893;80;21596;-54
2021/12/08 00:08:35;;;;;;;1.47;1.17;;;;;;;0.07;88.96;99076.98;1747365;80;21481;-55
2021/12/08 00:13:31;;;;;;;1.50;1.40;;;;;;;0.09;89.04;99074.70;1747366;79;21095;-55
2021/12/08 00:16:06;;;;;;;2.63;1.70;;;;;;;0.12;89.10;99069.38;1752977;80;20949;-54
2021/12/08 00:18:33;;;;;;;1.80;1.60;;;;;;;0.14;89.06;99075.97;1739037;80;21110;-54
2021/12/08 00:21:03;;;;;;;2.00;1.57;;;;;;;0.11;88.95;99079.98;1737555;81;22358;-54
2021/12/08 00:23:30;;;;;;;2.50;1.13;;;;;;;0.07;88.89;99071.23;1750378;80;21096;-54
2021/12/08 00:25:58;;;;;;;1.93;1.47;;;;;;;0.04;88.86;99072.60;1739196;81;21081;-53
2021/12/08 00:28:24;;;;;;;2.07;1.30;;;;;;;-0.01;88.82;99068.73;1746099;81;21099;-55
2021/12/08 00:30:54;;;;;;;1.50;1.40;;;;;;;-0.05;88.86;99068.78;1735238;80;21185;-55
2021/12/08 00:33:21;;;;;;;2.03;1.40;;;;;;;-0.04;88.98;99074.50;1761044;80;20944;-54
2021/12/08 00:35:49;;;;;;;3.60;2.40;;;;;;;-0.03;89.05;99077.13;1732132;81;20895;-54
2021/12/08 00:38:20;;;;;;;3.40;2.97;;;;;;;-0.04;88.99;99079.35;1739834;81;20969;-55
2021/12/08 00:40:45;;;;;;;2.50;1.90;;;;;;;-0.05;89.05;99092.15;1763735;80;21091;-54
2021/12/08 00:43:12;;;;;;;5.00;1.93;;;;;;;-0.05;89.05;99097.89;1760088;80;21103;-54
2021/12/08 00:45:39;;;;;;;2.37;2.10;;;;;;;-0.05;89.03;99093.92;1741112;81;21411;-54
2021/12/08 00:48:05;;;;;;;3.10;2.27;;;;;;;-0.06;89.05;99090.84;1738556;81;21388;-54
2021/12/08 00:50:34;;;;;;;1.77;1.67;;;;;;;-0.02;89.17;99099.17;1738091;81;21076;-54
2021/12/08 00:53:00;;;;;;;2.53;2.07;;;;;;;-0.01;89.03;99101.80;1738981;81;21992;-54
2021/12/08 00:55:27;;;;;;;3.27;2.03;;;;;;;-0.04;88.95;99091.25;1739397;81;21435;-53
2021/12/08 00:57:54;;;;;;;2.63;2.30;;;;;;;-0.06;89.04;99093.05;1739264;81;21901;-54
2021/12/08 01:00:30;;;;;;;1.60;1.40;;;;;;;-0.06;89.00;99087.75;1738987;80;20985;-54
2021/12/08 01:02:56;;;;;;;2.63;1.40;;;;;;;-0.05;89.03;99112.44;1739728;81;21488;-54
2021/12/08 01:05:28;;;;;;;2.77;1.70;;;;;;;-0.07;88.98;99089.09;1735167;81;21401;-53
2021/12/08 01:07:54;;;;;;;2.57;1.30;;;;;;;-0.07;89.08;99088.65;1736163;81;21097;-53
2021/12/08 01:10:23;;;;;;;4.27;2.37;;;;;;;-0.04;89.13;99078.47;1760720;79;21091;-54
2021/12/08 01:12:50;;;;;;;5.97;2.87;;;;;;;-0.03;89.16;99077.13;1732778;81;21452;-54
2021/12/08 01:15:17;;;;;;;7.17;4.27;;;;;;;-0.04;89.15;99068.77;1737437;81;21467;-54
2021/12/08 01:17:44;;;;;;;5.77;3.47;;;;;;;-0.03;89.12;99070.97;1737422;81;21298;-54
2021/12/08 01:20:12;;;;;;;5.33;3.67;;;;;;;-0.07;89.06;99067.93;1743148;80;21086;-54
2021/12/08 01:22:40;;;;;;;5.30;3.63;;;;;;;-0.12;89.14;99069.34;1742701;81;20946;-53
2021/12/08 01:25:07;;;;;;;4.53;3.10;;;;;;;-0.13;89.23;99063.63;1737258;81;21344;-53
2021/12/08 01:27:34;;;;;;;3.60;2.13;;;;;;;-0.13;89.28;99067.59;1738851;81;21452;-52
2021/12/08 01:30:01;;;;;;;4.80;3.00;;;;;;;-0.13;89.30;99062.75;1740408;79;21639;-53
2021/12/08 01:32:28;;;;;;;5.13;2.77;;;;;;;-0.13;89.34;99069.36;1736151;81;21132;-53
2021/12/08 01:34:54;;;;;;;3.43;2.67;;;;;;;-0.13;89.34;99060.98;1738926;81;20918;-53
2021/12/08 01:37:21;;;;;;;5.17;2.63;;;;;;;-0.15;89.28;99067.19;1739822;81;20926;-53
2021/12/08 01:39:47;;;;;;;4.27;3.13;;;;;;;-0.17;89.40;99068.52;1742026;81;21061;-53
2021/12/08 01:42:27;;;;;;;4.00;3.10;;;;;;;-0.17;89.45;99062.39;1740345;80;20949;-53
2021/12/08 01:47:28;;;;;;;2.90;2.27;;;;;;;-0.18;89.49;99070.77;1747012;81;20934;-52
2021/12/08 01:49:54;;;;;;;4.43;2.37;;;;;;;-0.17;89.63;99066.36;1744332;79;20937;-53
2021/12/08 01:52:21;;;;;;;2.37;1.80;;;;;;;-0.15;89.69;99068.50;1741945;81;20973;-53
2021/12/08 01:54:47;;;;;;;4.20;2.13;;;;;;;-0.13;89.64;99063.63;1766494;79;20977;-53
2021/12/08 01:57:14;;;;;;;4.63;3.60;;;;;;;-0.09;89.67;99062.69;1755906;80;21828;-53
2021/12/08 01:59:40;;;;;;;10.20;6.77;;;;;;;-0.06;89.63;99059.97;1750171;80;21048;-53
2021/12/08 02:02:07;;;;;;;6.93;5.17;;;;;;;-0.04;89.67;99055.53;1749332;79;21392;-53
2021/12/08 02:04:34;;;;;;;4.27;3.87;;;;;;;-0.02;89.57;99050.23;1751779;80;21443;-53
2021/12/08 02:07:00;;;;;;;3.90;3.50;;;;;;;-0.05;89.44;99051.14;1749597;80;21412;-52
2021/12/08 02:09:27;;;;;;;7.80;3.10;;;;;;;-0.07;89.43;99051.61;1749217;79;21094;-53
2021/12/08 02:11:56;;;;;;;5.03;2.73;;;;;;;-0.07;89.51;99049.41;1748888;80;20944;-53
2021/12/08 02:14:23;;;;;;;5.53;3.80;;;;;;;-0.10;89.44;99045.52;1750720;80;20957;-52
2021/12/08 02:16:51;;;;;;;7.43;4.30;;;;;;;-0.15;89.48;99045.58;1752396;80;21727;-51
2021/12/08 02:19:17;;;;;;;7.00;3.00;;;;;;;-0.14;89.58;99050.41;1745730;79;21095;-52
2021/12/08 02:21:44;;;;;;;7.53;4.27;;;;;;;-0.18;89.57;99044.33;1747106;81;21088;-52
2021/12/08 02:25:41;;;;;;;6.73;4.70;;;;;;;-0.16;89.66;99051.76;1789835;78;26944;-52
2021/12/08 02:28:08;;;;;;;7.07;5.50;;;;;;;-0.19;89.74;99052.28;1762293;80;21053;-52
2021/12/08 02:30:42;;;;;;;7.77;5.17;;;;;;;-0.21;89.73;99052.74;1761422;78;21156;-52
2021/12/08 02:47:06;;;;;;;13.75;7.42;;;;;;;-0.05;89.67;99038.36;1732218;80;20179;-52
2021/12/08 02:49:20;;;;;;;8.13;5.03;;;;;;;-0.09;89.66;99038.88;1723527;81;21136;-51
2021/12/08 02:51:47;;;;;;;9.10;5.07;;;;;;;-0.10;89.61;99033.16;1737560;81;22140;-52
2021/12/08 02:54:13;;;;;;;4.93;3.23;;;;;;;-0.11;89.64;99043.31;1733279;79;21155;-50
2021/12/08 02:56:40;;;;;;;6.77;4.27;;;;;;;-0.12;89.55;99043.34;1729997;81;20997;-50
2021/12/08 02:59:07;;;;;;;9.97;4.97;;;;;;;-0.16;89.52;99049.11;1733261;81;22505;-50
2021/12/08 03:01:33;;;;;;;6.50;3.53;;;;;;;-0.19;89.50;99045.22;1732744;81;21021;-52
2021/12/08 03:03:59;;;;;;;9.77;5.70;;;;;;;-0.19;89.57;99046.98;1735058;81;21080;-50
2021/12/08 03:06:26;;;;;;;9.60;5.60;;;;;;;-0.16;89.67;99046.92;1730604;81;22702;-51
2021/12/08 03:08:52;;;;;;;5.67;4.33;;;;;;;-0.14;89.75;99042.03;1738143;81;21142;-51
2021/12/08 03:11:18;;;;;;;10.60;5.60;;;;;;;-0.09;89.81;99040.66;1734377;81;20910;-52
2021/12/08 03:14:06;;;;;;;12.10;5.60;;;;;;;-0.07;89.65;99041.03;1730508;81;21076;-51
2021/12/08 03:16:35;;;;;;;10.77;6.03;;;;;;;-0.06;89.56;99053.80;1733193;81;21080;-52
2021/12/08 03:19:01;;;;;;;4.53;3.33;;;;;;;-0.07;89.48;99050.28;1734809;81;21068;-53
2021/12/08 03:21:31;;;;;;;5.90;3.53;;;;;;;-0.10;89.40;99047.72;1731514;81;21851;-52
2021/12/08 03:24:12;;;;;;;8.43;4.40;;;;;;;-0.11;89.37;99044.64;1727873;81;21256;-52
2021/12/08 03:26:35;;;;;;;6.60;4.30;;;;;;;-0.12;89.46;99040.69;1726986;82;21474;-52
2021/12/08 03:29:18;;;;;;;8.23;5.17;;;;;;;-0.13;89.45;99032.33;1727889;82;21875;-52
2021/12/08 03:31:35;;;;;;;7.07;5.20;;;;;;;-0.17;89.42;99043.40;1719141;82;21546;-52
2021/12/08 03:33:57;;;;;;;12.27;4.70;;;;;;;-0.17;89.49;99042.55;1723816;81;22710;-51
2021/12/08 03:36:24;;;;;;;11.97;5.73;;;;;;;-0.18;89.49;99036.39;1724034;82;21874;-52
2021/12/08 03:38:52;;;;;;;7.67;4.60;;;;;;;-0.19;89.41;99031.99;1726531;82;20970;-52
2021/12/08 03:41:18;;;;;;;8.07;5.47;;;;;;;-0.23;89.45;99038.22;1720724;82;22462;-52
2021/12/08 03:43:45;;;;;;;10.40;5.27;;;;;;;-0.22;89.57;99029.84;1718550;82;21136;-51
2021/12/08 03:46:13;;;;;;;15.33;6.23;;;;;;;-0.21;89.65;99024.52;1719705;82;21130;-52
2021/12/08 03:48:50;;;;;;;12.47;6.13;;;;;;;-0.22;89.63;99029.39;1716968;82;21557;-51
2021/12/08 03:51:16;;;;;;;8.73;5.07;;;;;;;-0.24;89.66;99020.59;1723426;82;21394;-52
2021/12/08 03:53:43;;;;;;;6.13;4.73;;;;;;;-0.25;89.71;99034.72;1721620;82;21017;-52
2021/12/08 03:56:10;;;;;;;12.23;5.03;;;;;;;-0.25;89.72;99029.88;1721171;82;21069;-52
2021/12/08 03:58:36;;;;;;;12.37;5.97;;;;;;;-0.26;89.67;99037.41;1717961;82;21106;-52
2021/12/08 04:01:04;;;;;;;10.27;6.03;;;;;;;-0.27;89.74;99035.22;1719510;80;21127;-51
2021/12/08 04:03:33;;;;;;;10.83;5.90;;;;;;;-0.27;89.76;99025.95;1728451;82;21350;-52
2021/12/08 04:06:03;;;;;;;8.80;5.87;;;;;;;-0.26;89.83;99029.03;1722113;82;20935;-51
2021/12/08 04:08:42;;;;;;;11.17;5.67;;;;;;;-0.27;89.81;99034.34;1720865;82;20973;-51
2021/12/08 04:11:04;;;;;;;15.20;7.00;;;;;;;-0.29;89.85;99026.42;1719426;82;22218;-51
2021/12/08 04:13:45;;;;;;;13.33;5.43;;;;;;;-0.30;89.82;99028.64;1727792;82;20903;-52
2021/12/08 04:16:12;;;;;;;14.83;7.63;;;;;;;-0.29;89.90;99028.20;1725065;82;20859;-52
2021/12/08 04:18:38;;;;;;;9.47;5.43;;;;;;;-0.28;89.96;99024.20;1723861;82;20906;-51
2021/12/08 04:21:06;;;;;;;8.97;5.97;;;;;;;-0.28;89.97;99040.08;1726622;82;21097;-51
2021/12/08 04:23:36;;;;;;;8.47;4.70;;;;;;;-0.32;89.95;99023.81;1717597;82;21118;-52
2021/12/08 04:26:02;;;;;;;9.57;5.90;;;;;;;-0.31;90.08;99024.70;1717967;81;21662;-53
2021/12/08 04:28:30;;;;;;;8.43;4.77;;;;;;;-0.30;90.18;99016.73;1725047;82;21392;-51
2021/12/08 04:31:07;;;;;;;13.03;7.27;;;;;;;-0.27;90.24;99033.02;1727390;82;21029;-54
2021/12/08 04:33:35;;;;;;;12.43;7.67;;;;;;;-0.25;90.21;99033.84;1731590;80;22047;-52
2021/12/08 04:36:02;;;;;;;10.63;6.40;;;;;;;-0.29;90.06;99037.45;1727381;82;21809;-52
2021/12/08 04:38:35;;;;;;;7.13;4.43;;;;;;;-0.31;90.20;99040.11;1728905;80;20907;-53
2021/12/08 04:41:04;;;;;;;8.27;5.07;;;;;;;-0.33;90.15;99031.32;1730021;80;20860;-54
2021/12/08 04:43:39;;;;;;;6.50;3.80;;;;;;;-0.34;90.20;99028.25;1724996;82;20958;-54
2021/12/08 05:05:36;;;;;;;23.23;10.23;;;;;;;-0.14;90.09;99043.80;1724561;82;21393;-54
2021/12/08 05:08:00;;;;;;;25.00;10.37;;;;;;;-0.15;90.06;99048.66;1722713;82;20883;-55
2021/12/08 05:10:33;;;;;;;11.20;5.60;;;;;;;-0.16;90.05;99051.76;1722189;82;20864;-53
2021/12/08 05:13:02;;;;;;;9.07;4.53;;;;;;;-0.15;90.07;99052.19;1726038;82;20986;-55
2021/12/08 05:15:39;;;;;;;11.23;4.30;;;;;;;-0.13;90.18;99048.20;1723809;82;21830;-55
2021/12/08 05:18:22;;;;;;;8.00;4.47;;;;;;;-0.11;90.12;99059.64;1722777;82;20942;-54
2021/12/08 05:21:01;;;;;;;;;;;;;;;-0.11;89.94;99055.22;1717869;82;20899;-54
2021/12/08 05:23:30;;;;;;;14.50;5.80;;;;;;;-0.13;89.88;99048.20;1725960;81;20110;-55
2021/12/08 05:25:59;;;;;;;13.33;4.80;;;;;;;-0.14;89.91;99051.73;1731603;81;21039;-55
2021/12/08 05:28:26;;;;;;;14.17;5.80;;;;;;;-0.15;89.78;99055.28;1735619;81;21293;-55
2021/12/08 05:31:11;;;;;;;21.63;8.47;;;;;;;-0.17;89.84;99039.91;1736887;81;21277;-55
2021/12/08 05:33:39;;;;;;;24.53;11.97;;;;;;;-0.13;90.00;99051.72;1735782;81;21068;-54
2021/12/08 05:36:05;;;;;;;27.37;11.07;;;;;;;-0.10;89.95;99051.68;1736805;81;21178;-53
2021/12/08 05:38:32;;;;;;;13.87;5.87;;;;;;;-0.08;89.80;99054.27;1737963;81;20923;-53
2021/12/08 05:41:09;;;;;;;13.00;5.77;;;;;;;-0.09;89.67;99042.85;1737150;81;21156;-53
2021/12/08 05:43:35;;;;;;;14.30;4.83;;;;;;;-0.11;89.66;99043.77;1734409;81;21604;-52
2021/12/08 05:46:02;;;;;;;8.10;4.27;;;;;;;-0.08;89.74;99043.24;1734842;81;21077;-55
2021/12/08 05:48:31;;;;;;;5.10;3.23;;;;;;;-0.07;89.68;99050.73;1732261;81;21092;-54
2021/12/08 05:51:06;;;;;;;11.43;5.93;;;;;;;-0.08;89.56;99048.53;1738974;81;21058;-55
2021/12/08 05:53:33;;;;;;;20.97;10.17;;;;;;;-0.07;89.65;99050.73;1734755;81;22815;-53
2021/12/08 05:56:00;;;;;;;24.87;12.43;;;;;;;-0.05;89.67;99049.82;1738969;81;21212;-55
2021/12/08 05:58:26;;;;;;;22.97;9.37;;;;;;;-0.04;89.63;99047.60;1738113;81;21744;-55
2021/12/08 06:01:11;;;;;;;14.37;5.83;;;;;;;-0.02;89.59;99048.45;1734160;81;20999;-54
2021/12/08 06:03:38;;;;;;;9.15;2.90;;;;;;;0.02;89.58;99051.03;1741122;81;20876;-55
2021/12/08 06:06:05;;;;;;;18.50;4.97;;;;;;;-0.01;89.30;99047.56;1737892;81;21729;-55
2021/12/08 06:08:31;;;;;;;10.07;3.20;;;;;;;-0.02;89.40;99051.10;1736172;81;21021;-53
2021/12/08 06:11:00;;;;;;;15.37;5.83;;;;;;;-0.01;89.34;99050.66;1709629;81;21129;-54
2021/12/08 06:13:26;;;;;;;13.67;5.10;;;;;;;-0.02;89.29;99048.45;1739998;81;21608;-55
2021/12/08 06:15:53;;;;;;;11.80;4.90;;;;;;;-0.02;89.29;99051.10;1738726;81;21410;-55
2021/12/08 06:18:22;;;;;;;13.23;3.30;;;;;;;-0.03;89.28;99050.67;1733543;80;21106;-53
2021/12/08 06:20:50;;;;;;;8.57;2.30;;;;;;;-0.02;89.27;99061.69;1733170;81;21418;-56
2021/12/08 06:23:16;;;;;;;4.47;2.00;;;;;;;-0.01;89.16;99059.91;1737894;81;20931;-52
2021/12/08 06:25:43;;;;;;;4.40;2.20;;;;;;;-0.03;88.97;99056.41;1738118;81;20919;-53
2021/12/08 06:28:09;;;;;;;7.37;2.20;;;;;;;-0.08;88.98;99051.62;1739764;81;21118;-53
2021/12/08 06:30:37;;;;;;;5.83;2.20;;;;;;;-0.08;89.06;99052.50;1731732;81;21798;-52
2021/12/08 06:33:04;;;;;;;4.80;1.60;;;;;;;-0.09;89.03;99060.05;1736542;81;20908;-53
2021/12/08 06:35:39;;;;;;;3.60;1.37;;;;;;;-0.08;89.17;99055.59;1740358;81;20927;-55
2021/12/08 06:38:05;;;;;;;2.75;1.70;;;;;;;-0.06;89.21;99053.36;1742972;81;20963;-55
2021/12/08 06:40:46;;;;;;;6.90;2.03;;;;;;;-0.05;89.13;99053.78;1738808;81;22574;-53
2021/12/08 06:43:15;;;;;;;6.93;2.17;;;;;;;-0.06;89.15;99048.07;1738265;81;21748;-55
2021/12/08 06:45:44;;;;;;;7.53;3.03;;;;;;;-0.05;89.15;99047.63;1736961;81;21083;-55
2021/12/08 06:48:16;;;;;;;3.63;1.90;;;;;;;-0.02;89.05;99054.19;1733620;81;21109;-54
2021/12/08 06:50:53;;;;;;;4.30;1.50;;;;;;;-0.02;88.99;99042.29;1739703;80;21141;-54
2021/12/08 06:53:20;;;;;;;4.97;1.70;;;;;;;0.00;88.99;99041.82;1736560;81;21006;-53
2021/12/08 06:55:55;;;;;;;2.00;1.03;;;;;;;-0.01;88.92;99042.72;1732763;81;21132;-52
2021/12/08 06:58:25;;;;;;;;;;;;;;;-0.03;89.05;99030.83;1731307;81;21314;-53
2021/12/08 07:01:51;;;;;;;2.47;1.20;;;;;;;-0.02;89.03;99047.13;1732426;81;21342;-52
2021/12/08 07:09:23;;;;;;;2.70;1.20;;;;;;;0.05;89.16;99045.25;1737439;81;21071;-53
2021/12/08 07:11:51;;;;;;;2.80;2.20;;;;;;;0.08;89.14;99052.27;1737191;81;20951;-54
2021/12/08 07:14:18;;;;;;;5.73;1.60;;;;;;;0.09;89.10;99052.66;1734934;81;20923;-53
2021/12/08 07:16:48;;;;;;;1.90;1.07;;;;;;;0.10;89.10;99054.41;1742692;81;20955;-52
2021/12/08 07:19:28;;;;;;;2.10;1.30;;;;;;;0.12;89.04;99056.14;1744892;81;21055;-52
2021/12/08 07:21:52;;;;;;;2.90;1.00;;;;;;;0.14;88.96;99057.45;1750109;81;21511;-52
2021/12/08 07:24:25;;;;;;;2.10;1.20;;;;;;;0.12;88.89;99052.17;1692023;83;21579;-54
2021/12/08 07:26:55;;;;;;;2.40;1.47;;;;;;;0.15;88.90;99055.23;1744590;81;21049;-54
2021/12/08 07:29:26;;;;;;;2.23;1.10;;;;;;;0.17;88.83;99060.05;1747697;81;21457;-52
2021/12/08 07:31:57;;;;;;;2.30;1.10;;;;;;;0.12;88.68;99056.59;1733480;81;21528;-52
2021/12/08 07:34:25;;;;;;;2.27;1.30;;;;;;;0.11;88.70;99054.84;1733629;81;21707;-54
2021/12/08 07:36:56;;;;;;;3.30;1.83;;;;;;;0.10;88.70;99050.45;1738415;81;21298;-52
2021/12/08 07:39:28;;;;;;;1.77;1.20;;;;;;;0.10;88.72;99049.13;1740154;81;20955;-53
2021/12/08 07:41:59;;;;;;;1.40;1.00;;;;;;;0.14;88.85;99042.89;1740522;80;20911;-52
2021/12/08 07:44:26;;;;;;;2.20;1.20;;;;;;;0.19;88.88;99041.02;1731661;81;21342;-52
2021/12/08 07:47:06;;;;;;;1.70;1.17;;;;;;;0.20;88.81;99039.67;1751344;81;21442;-52
2021/12/08 07:49:38;;;;;;;2.90;1.30;;;;;;;0.21;88.76;99045.84;1739708;81;20946;-53
2021/12/08 07:52:18;;;;;;;1.50;1.27;;;;;;;0.19;88.70;99043.67;1741599;81;21116;-53
2021/12/08 07:54:45;;;;;;;4.47;1.87;;;;;;;0.19;88.74;99037.92;1744291;81;20959;-56
2021/12/08 07:57:22;;;;;;;2.00;1.23;;;;;;;0.24;88.84;99046.68;1737713;80;21022;-53
2021/12/08 07:59:51;;;;;;;7.37;3.47;;;;;;;0.26;88.81;99052.79;1749302;81;21343;-53
2021/12/08 08:02:18;;;;;;;5.27;2.07;;;;;;;0.27;88.66;99048.37;1738259;81;21003;-53
2021/12/08 08:04:47;;;;;;;1.50;0.93;;;;;;;0.23;88.48;99048.02;1740485;81;20920;-53
2021/12/08 08:07:14;;;;;;;4.07;1.10;;;;;;;0.20;88.38;99045.42;1744162;81;20916;-52
2021/12/08 08:09:43;;;;;;;1.30;0.90;;;;;;;0.17;88.40;99045.02;1739640;81;20943;-53
2021/12/08 08:12:17;;;;;;;4.00;1.10;;;;;;;0.15;88.26;99033.61;1739567;81;21032;-52
2021/12/08 08:14:51;;;;;;;2.77;2.13;;;;;;;0.15;88.37;99038.02;1737024;81;21054;-55
2021/12/08 08:17:19;;;;;;;2.63;1.20;;;;;;;0.16;88.47;99032.70;1738833;81;21393;-56
2021/12/08 08:19:46;;;;;;;1.97;1.27;;;;;;;0.19;88.46;99027.34;1734218;81;21071;-55
2021/12/08 08:22:18;;;;;;;1.97;1.33;;;;;;;0.20;88.48;99017.63;1733167;81;21063;-56
2021/12/08 08:24:44;;;;;;;2.60;1.47;;;;;;;0.22;88.49;99026.42;1737344;81;21105;-56
2021/12/08 08:27:11;;;;;;;3.87;1.93;;;;;;;0.24;88.47;99027.27;1724634;81;21033;-55
2021/12/08 08:29:38;;;;;;;3.13;1.20;;;;;;;0.25;88.47;99014.47;1719770;82;21125;-55
2021/12/08 08:32:20;;;;;;;2.80;1.37;;;;;;;0.27;88.47;99013.96;1716651;82;21099;-56
2021/12/08 08:34:49;;;;;;;2.37;1.10;;;;;;;0.28;88.42;99002.48;1720735;82;21096;-53
2021/12/08 08:37:17;;;;;;;3.60;0.97;;;;;;;0.30;88.45;99008.63;1724465;82;21938;-54
2021/12/08 08:39:49;;;;;;;1.40;0.97;;;;;;;0.28;88.28;99010.42;1717920;82;21042;-55
2021/12/08 08:42:23;;;;;;;3.50;0.90;;;;;;;0.26;88.29;99010.44;1722345;82;21435;-54
2021/12/08 08:45:10;;;;;;;1.10;0.70;;;;;;;0.24;87.99;99011.39;1719189;82;21109;-54
2021/12/08 08:47:45;;;;;;;2.43;1.10;;;;;;;0.19;87.99;98999.55;1723561;82;21041;-55
2021/12/08 08:50:19;;;;;;;6.17;1.02;;;;;;;0.19;88.12;99014.11;1723826;82;21098;-51
2021/12/08 08:52:49;;;;;;;1.40;0.90;;;;;;;0.18;87.87;99014.12;1726250;82;20979;-54
2021/12/08 08:55:24;;;;;;;3.07;1.40;;;;;;;0.16;88.01;99015.51;1720100;82;20926;-53
2021/12/08 08:57:50;;;;;;;8.03;3.42;;;;;;;0.13;88.03;99022.17;1725027;82;21575;-55
2021/12/08 09:00:30;;;;;;;2.10;1.20;;;;;;;0.12;88.08;99018.22;1724951;82;21033;-51
2021/12/08 09:02:58;;;;;;;1.83;0.90;;;;;;;0.14;88.11;99009.36;1721230;82;21942;-55
2021/12/08 09:05:30;;;;;;;3.00;1.10;;;;;;;0.16;88.15;99017.28;1718778;80;21045;-53
2021/12/08 09:07:58;;;;;;;1.33;0.80;;;;;;;0.17;88.23;99019.03;1720419;80;20943;-54
2021/12/08 09:10:33;;;;;;;1.90;0.83;;;;;;;0.20;88.14;99020.28;1724413;80;20926;-51
2021/12/08 09:13:10;;;;;;;3.00;0.90;;;;;;;0.18;88.16;99016.33;1723532;80;20939;-55
2021/12/08 09:15:42;;;;;;;1.70;0.80;;;;;;;0.19;88.22;99013.23;1720744;80;21171;-53
2021/12/08 09:18:13;;;;;;;3.23;1.47;;;;;;;0.21;88.18;99015.41;1723228;80;21456;-56
2021/12/08 09:20:56;;;;;;;10.17;4.30;;;;;;;0.22;88.12;99011.86;1719435;80;21049;-53
2021/12/08 09:23:31;;;;;;;14.97;7.00;;;;;;;0.23;88.26;99008.32;1720930;80;21064;-51
2021/12/08 09:26:07;;;;;;;14.73;7.63;;;;;;;0.27;88.23;99013.96;1717946;80;21016;-53
2021/12/08 09:28:42;;;;;;;11.67;6.10;;;;;;;0.26;88.16;99012.21;1726087;80;21136;-54
2021/12/08 09:32:54;;;;;;;5.57;2.67;;;;;;;0.27;88.22;99005.58;1757785;78;26343;-52
2021/12/08 09:35:28;;;;;;;4.00;1.62;;;;;;;0.23;88.19;99009.20;1734588;80;21005;-54
2021/12/08 09:37:58;;;;;;;;;;;;;;;0.24;88.12;99008.30;1723930;80;20950;-55
2021/12/08 09:40:32;;;;;;;3.63;1.93;;;;;;;0.23;88.05;99016.27;1722292;80;20538;-53
2021/12/08 09:43:02;;;;;;;3.73;1.00;;;;;;;0.22;88.14;99011.86;1725350;80;21022;-56
2021/12/08 09:45:37;;;;;;;8.47;1.47;;;;;;;0.28;88.32;99010.42;1724944;80;20950;-56
2021/12/08 09:48:04;;;;;;;5.35;1.10;;;;;;;0.32;88.32;98993.59;1678171;83;21005;-52
2021/12/08 09:50:31;;;;;;;3.07;1.00;;;;;;;0.35;88.28;98980.27;1690255;82;21133;-52
2021/12/08 09:52:58;;;;;;;2.37;0.83;;;;;;;0.34;88.07;98988.66;1704371;82;21056;-54
2021/12/08 09:55:24;;;;;;;2.00;1.00;;;;;;;0.33;87.98;98988.27;1689141;82;20998;-53
2021/12/08 09:57:51;;;;;;;5.70;1.23;;;;;;;0.32;87.96;98988.30;1686933;82;21089;-56
2021/12/08 10:00:25;;;;;;;6.07;1.40;;;;;;;0.33;88.03;98982.98;1685691;82;21100;-52
2021/12/08 10:02:57;;;;;;;2.72;0.80;;;;;;;0.37;88.11;98991.71;1690705;82;21824;-55
2021/12/08 10:05:20;;;;;;;5.03;1.30;;;;;;;0.37;87.83;98988.62;1681470;82;21092;-57
2021/12/08 10:07:47;;;;;;;3.77;1.27;;;;;;;0.33;87.72;98982.11;1683247;82;21105;-53
2021/12/08 10:10:15;;;;;;;4.13;1.13;;;;;;;0.29;87.81;98987.89;1620773;84;22331;-54
2021/12/08 10:12:42;;;;;;;4.87;1.33;;;;;;;0.29;87.81;98980.41;1685142;82;20918;-53
2021/12/08 10:15:14;;;;;;;2.30;0.83;;;;;;;0.30;87.79;98983.48;1681967;82;22698;-53
2021/12/08 10:17:41;;;;;;;2.17;0.83;;;;;;;0.28;87.76;98974.69;1688639;82;21029;-55
2021/12/08 10:20:24;;;;;;;1.67;0.70;;;;;;;0.26;87.74;98976.48;1685974;82;20898;-53
2021/12/08 10:23:13;;;;;;;1.60;0.70;;;;;;;0.28;87.86;98972.03;1683238;82;21065;-52
2021/12/08 10:25:46;;;;;;;2.77;1.17;;;;;;;0.28;87.75;98974.69;1686408;82;21071;-53
2021/12/08 10:28:27;;;;;;;2.27;0.70;;;;;;;0.27;87.71;98982.20;1684303;82;22946;-53
2021/12/08 10:30:59;;;;;;;1.47;0.80;;;;;;;0.27;87.70;98975.58;1676655;82;21136;-53
2021/12/08 10:39:47;;;;;;;1.20;0.70;;;;;;;0.27;87.76;98965.00;1680559;83;21068;-53
2021/12/08 10:42:22;;;;;;;2.15;0.93;;;;;;;0.28;87.69;98960.12;1668372;83;21147;-52
2021/12/08 10:45:01;;;;;;;1.60;0.70;;;;;;;0.24;87.51;98963.75;1671885;83;21078;-53
2021/12/08 10:47:36;;;;;;;3.80;0.80;;;;;;;0.20;87.55;98954.98;1673079;83;21105;-56
2021/12/08 10:55:26;;;;;;;3.97;1.63;;;;;;;0.27;87.94;98945.14;1673810;83;21086;-55
2021/12/08 10:57:54;;;;;;;4.23;1.50;;;;;;;0.30;87.81;98950.39;1677394;83;21240;-53
2021/12/08 11:00:26;;;;;;;4.17;1.20;;;;;;;0.27;87.80;98954.41;1672866;83;21081;-55
2021/12/08 11:02:58;;;;;;;3.30;1.10;;;;;;;0.28;87.79;98954.83;1676379;83;20951;-54
2021/12/08 11:05:30;;;;;;;9.60;3.40;;;;;;;0.24;87.69;98938.16;1674531;83;20938;-54
2021/12/08 11:08:11;;;;;;;5.70;2.23;;;;;;;0.23;87.71;98938.18;1673292;83;21123;-53
2021/12/08 11:11:02;;;;;;;4.33;1.60;;;;;;;0.22;87.86;98937.30;1675597;83;20946;-50
2021/12/08 11:13:39;;;;;;;3.07;1.50;;;;;;;0.24;87.95;98931.54;1670189;83;20930;-54
2021/12/08 11:16:15;;;;;;;11.37;1.87;;;;;;;0.26;88.07;98928.39;1679035;83;20917;-54
2021/12/08 11:18:48;;;;;;;9.70;2.20;;;;;;;0.28;88.05;98928.36;1672185;83;22197;-55
2021/12/08 11:21:24;;;;;;;8.70;2.27;;;;;;;0.30;87.95;98926.56;1671506;83;22105;-56
2021/12/08 11:23:52;;;;;;;7.03;1.77;;;;;;;0.30;87.96;98927.89;1656630;83;21073;-56
2021/12/08 11:26:30;;;;;;;6.90;1.70;;;;;;;0.31;88.06;98921.24;1639890;83;20962;-55
2021/12/08 11:29:15;;;;;;;8.70;2.17;;;;;;;0.31;87.91;98913.75;1676847;83;20987;-56
2021/12/08 11:31:51;;;;;;;6.97;2.17;;;;;;;0.24;87.91;98929.34;1671885;83;20892;-53
2021/12/08 11:34:34;;;;;;;6.85;1.52;;;;;;;0.22;87.99;98915.27;1663148;83;21120;-52
2021/12/08 11:37:07;;;;;;;6.40;1.93;;;;;;;0.20;88.07;98919.25;1657891;83;20984;-55
2021/12/08 11:39:37;;;;;;;8.17;1.63;;;;;;;0.19;88.07;98913.98;1662406;83;21515;-55
2021/12/08 11:42:19;;;;;;;9.70;2.70;;;;;;;0.19;88.13;98912.22;1691453;82;21302;-53
2021/12/08 11:44:50;;;;;;;9.33;2.97;;;;;;;0.20;88.29;98902.05;1677873;83;21717;-51
2021/12/08 11:47:21;;;;;;;11.07;2.50;;;;;;;0.22;88.34;98906.88;1649682;84;21127;-53
2021/12/08 11:49:58;;;;;;;4.40;1.90;;;;;;;0.22;88.35;98908.64;1663366;83;22317;-52
2021/12/08 11:52:29;;;;;;;6.43;2.87;;;;;;;0.19;88.26;98905.59;1659356;84;21081;-54
2021/12/08 11:55:01;;;;;;;10.40;2.63;;;;;;;0.17;88.39;98897.30;1673429;83;21143;-52
2021/12/08 11:57:40;;;;;;;8.53;2.30;;;;;;;0.12;88.50;98896.05;1674758;83;21053;-55
2021/12/08 12:00:14;;;;;;;6.83;2.43;;;;;;;0.09;88.69;98892.12;1672629;83;21130;-54
2021/12/08 12:02:51;;;;;;;;;;;;;;;0.07;88.86;98888.66;1679385;83;20933;-55
2021/12/08 12:05:19;;;;;;;8.37;2.23;;;;;;;0.05;88.94;98884.29;1674409;83;20623;-53
2021/12/08 12:07:46;;;;;;;4.80;1.83;;;;;;;0.02;89.02;98877.73;1672241;83;21002;-53
2021/12/08 12:10:15;;;;;;;8.27;3.07;;;;;;;0.04;89.18;98879.90;1679447;83;20915;-51
2021/12/08 12:12:42;;;;;;;6.50;2.13;;;;;;;0.03;89.23;98883.44;1675692;83;21090;-51
2021/12/08 12:15:14;;;;;;;6.27;1.93;;;;;;;-0.02;89.31;98885.75;1675380;83;20994;-51
2021/12/08 12:17:41;;;;;;;6.67;2.23;;;;;;;-0.02;89.46;98886.19;1679136;83;20895;-54
2021/12/08 12:20:16;;;;;;;3.00;1.60;;;;;;;-0.04;89.41;98890.64;1673201;83;20911;-53
2021/12/08 12:23:20;;;;;;;7.23;1.80;;;;;;;-0.08;89.44;98895.55;1676398;83;21001;-53
2021/12/08 12:26:22;;;;;;;6.90;1.60;;;;;;;-0.10;89.64;98890.77;1673214;83;21182;-52
2021/12/08 12:29:26;;;;;;;6.90;2.73;;;;;;;-0.08;89.81;98889.81;1674983;83;21191;-54
2021/12/08 12:31:56;;;;;;;7.27;2.27;;;;;;;-0.01;89.92;98889.27;1666912;83;21044;-52
2021/12/08 12:34:33;;;;;;;11.43;2.83;;;;;;;0.00;89.85;98898.95;1664322;83;21006;-53
2021/12/08 12:37:17;;;;;;;5.10;1.70;;;;;;;-0.03;89.86;98901.20;1667106;83;20931;-55
2021/12/08 12:39:48;;;;;;;4.73;2.27;;;;;;;-0.02;89.89;98906.03;1662638;83;22499;-56
2021/12/08 12:42:16;;;;;;;2.13;1.40;;;;;;;-0.05;89.87;98909.60;1664327;83;21065;-52
2021/12/08 12:44:46;;;;;;;7.10;1.97;;;;;;;-0.08;89.93;98921.55;1665208;84;21866;-52
2021/12/08 12:47:22;;;;;;;4.03;1.60;;;;;;;-0.09;90.05;98913.23;1657291;83;22354;-55
2021/12/08 12:50:03;;;;;;;4.80;1.55;;;;;;;-0.08;90.13;98916.27;1663537;83;21101;-52
2021/12/08 12:52:39;;;;;;;6.22;2.40;;;;;;;-0.04;90.33;98921.94;1638083;83;21118;-52